createdAt,value
2019-05-01T00:00:16.386Z,60.53
2019-05-01T00:01:33.031Z,60.73
2019-05-01T00:02:58.808Z,60.13
2019-05-01T00:04:24.374Z,60.65
2019-05-01T00:05:40.212Z,60.59
2019-05-01T00:06:53.545Z,60.46
2019-05-01T00:08:01.964Z,60.68
2019-05-01T00:09:12.323Z,60.83
2019-05-01T00:10:23.098Z,60.58
2019-05-01T00:11:30.994Z,60.69
2019-05-01T00:12:39.272Z,60.77
2019-05-01T00:13:47.347Z,60.86
2019-05-01T00:14:56.646Z,60.71
2019-05-01T00:16:04.746Z,60.75
2019-05-01T00:17:12.996Z,60.80
2019-05-01T00:18:21.111Z,60.85
2019-05-01T00:19:29.134Z,60.82
2019-05-01T00:20:37.119Z,60.77
2019-05-01T00:21:45.089Z,60.53
2019-05-01T00:22:52.936Z,60.64
2019-05-01T00:24:00.957Z,60.71
2019-05-01T00:25:09.189Z,60.46
2019-05-01T00:26:17.117Z,60.55
2019-05-01T00:27:25.067Z,60.42
2019-05-01T00:28:32.994Z,60.74
2019-05-01T00:29:41.130Z,60.75
2019-05-01T00:30:49.258Z,60.63
2019-05-01T00:31:57.221Z,60.48
2019-05-01T00:33:05.343Z,60.73
2019-05-01T00:34:13.681Z,60.62
2019-05-01T00:35:21.717Z,60.74
2019-05-01T00:36:29.698Z,60.46
2019-05-01T00:37:37.944Z,60.41
2019-05-01T00:38:46.030Z,60.62
2019-05-01T00:39:53.958Z,60.45
2019-05-01T00:41:02.119Z,60.40
2019-05-01T00:42:10.229Z,60.59
2019-05-01T00:43:18.193Z,60.48
2019-05-01T00:44:26.954Z,60.47
2019-05-01T00:45:34.826Z,60.76
2019-05-01T00:46:42.747Z,60.76
2019-05-01T00:47:51.014Z,60.73
2019-05-01T00:48:59.556Z,60.76
2019-05-01T00:50:10.804Z,60.74
2019-05-01T00:51:18.831Z,60.71
2019-05-01T00:52:26.744Z,60.42
2019-05-01T00:53:34.851Z,60.52
2019-05-01T00:54:44.535Z,60.60
2019-05-01T00:56:07.291Z,60.64
2019-05-01T00:57:22.925Z,60.56
2019-05-01T00:58:48.204Z,60.66
2019-05-01T01:00:03.633Z,60.63
2019-05-01T01:01:20.403Z,60.65
2019-05-01T01:02:35.709Z,60.56
2019-05-01T01:03:44.165Z,60.49
2019-05-01T01:04:52.510Z,60.45
2019-05-01T01:06:00.338Z,60.38
2019-05-01T01:07:08.681Z,60.51
2019-05-01T01:08:17.191Z,60.37
2019-05-01T01:09:25.230Z,60.49
2019-05-01T01:10:33.420Z,60.50
2019-05-01T01:11:41.523Z,60.50
2019-05-01T01:12:49.419Z,60.37
2019-05-01T01:13:57.189Z,60.43
2019-05-01T01:15:06.049Z,60.34
2019-05-01T01:16:14.057Z,60.30
2019-05-01T01:17:21.954Z,60.34
2019-05-01T01:18:29.773Z,60.32
2019-05-01T01:19:37.798Z,60.30
2019-05-01T01:20:45.752Z,60.40
2019-05-01T01:21:54.167Z,60.20
2019-05-01T01:23:02.511Z,60.35
2019-05-01T01:24:10.434Z,60.34
2019-05-01T01:25:18.512Z,60.26
2019-05-01T01:26:26.400Z,60.24
2019-05-01T01:27:34.483Z,60.23
2019-05-01T01:28:42.571Z,60.31
2019-05-01T01:29:50.657Z,60.26
2019-05-01T01:30:58.972Z,60.17
2019-05-01T01:32:07.107Z,60.04
2019-05-01T01:33:15.623Z,59.83
2019-05-01T01:34:23.569Z,59.72
2019-05-01T01:35:31.946Z,59.04
2019-05-01T01:36:40.171Z,58.47
2019-05-01T01:37:48.091Z,58.59
2019-05-01T01:38:56.471Z,58.98
2019-05-01T01:40:06.962Z,59.54
2019-05-01T01:41:14.796Z,59.14
2019-05-01T01:42:23.661Z,59.10
2019-05-01T01:43:44.006Z,58.99
2019-05-01T01:44:53.879Z,59.24
2019-05-01T01:46:06.187Z,59.57
2019-05-01T01:47:14.403Z,59.46
2019-05-01T01:48:22.762Z,59.42
2019-05-01T01:49:31.179Z,59.49
2019-05-01T01:50:44.600Z,59.44
2019-05-01T01:51:53.053Z,59.57
2019-05-01T01:53:01.097Z,59.72
2019-05-01T01:54:09.557Z,59.99
2019-05-01T01:55:17.709Z,60.02
2019-05-01T01:56:26.080Z,60.05
2019-05-01T01:57:34.179Z,59.94
2019-05-01T01:58:42.764Z,60.12
2019-05-01T01:59:52.182Z,60.29
2019-05-01T02:01:09.467Z,60.19
2019-05-01T02:02:20.839Z,60.25
2019-05-01T02:03:30.950Z,60.42
2019-05-01T02:04:52.164Z,60.56
2019-05-01T02:06:00.166Z,60.33
2019-05-01T02:07:08.187Z,60.53
2019-05-01T02:08:16.057Z,60.16
2019-05-01T02:09:24.320Z,60.31
2019-05-01T02:10:42.607Z,60.52
2019-05-01T02:11:42.772Z,60.63
2019-05-01T02:12:50.979Z,60.53
2019-05-01T02:13:59.505Z,60.73
2019-05-01T02:15:08.889Z,60.63
2019-05-01T02:16:16.894Z,60.58
2019-05-01T02:17:24.798Z,60.45
2019-05-01T02:18:32.691Z,60.28
2019-05-01T02:19:40.650Z,60.39
2019-05-01T02:20:48.770Z,60.41
2019-05-01T02:21:57.420Z,60.39
2019-05-01T02:23:05.357Z,60.34
2019-05-01T02:24:13.606Z,60.26
2019-05-01T02:25:22.638Z,60.25
2019-05-01T02:26:38.829Z,60.25
2019-05-01T02:27:48.935Z,60.24
2019-05-01T02:28:59.198Z,60.27
2019-05-01T02:30:11.948Z,60.28
2019-05-01T02:31:29.626Z,60.43
2019-05-01T02:32:40.129Z,60.49
2019-05-01T02:33:49.894Z,60.70
2019-05-01T02:35:00.266Z,60.72
2019-05-01T02:36:10.412Z,60.84
2019-05-01T02:37:20.530Z,60.88
2019-05-01T02:38:28.683Z,60.90
2019-05-01T02:39:37.942Z,60.98
2019-05-01T02:40:53.453Z,60.96
2019-05-01T02:42:04.360Z,60.91
2019-05-01T02:43:16.966Z,60.94
2019-05-01T02:44:47.661Z,60.80
2019-05-01T02:45:59.230Z,61.16
2019-05-01T02:47:11.485Z,61.18
2019-05-01T02:48:23.417Z,60.94
2019-05-01T02:49:52.983Z,60.98
2019-05-01T02:51:04.517Z,61.29
2019-05-01T02:52:14.765Z,61.30
2019-05-01T02:53:26.219Z,61.44
2019-05-01T02:54:36.612Z,61.57
2019-05-01T02:56:03.695Z,61.44
2019-05-01T02:57:14.062Z,61.58
2019-05-01T02:58:22.008Z,61.61
2019-05-01T02:59:33.519Z,61.55
2019-05-01T03:00:42.520Z,61.47
2019-05-01T03:01:51.525Z,61.56
2019-05-01T03:03:01.361Z,61.38
2019-05-01T03:04:11.338Z,61.36
2019-05-01T03:05:19.555Z,61.37
2019-05-01T03:06:30.389Z,61.48
2019-05-01T03:07:39.982Z,61.76
2019-05-01T03:08:49.097Z,61.82
2019-05-01T03:09:57.425Z,61.68
2019-05-01T03:11:05.474Z,61.85
2019-05-01T03:12:15.793Z,61.86
2019-05-01T03:13:24.169Z,61.78
2019-05-01T03:14:36.469Z,61.78
2019-05-01T03:15:44.526Z,61.67
2019-05-01T03:16:56.898Z,61.92
2019-05-01T03:18:05.113Z,61.77
2019-05-01T03:19:15.715Z,61.73
2019-05-01T03:20:34.487Z,62.00
2019-05-01T03:21:49.609Z,62.04
2019-05-01T03:23:13.734Z,61.93
2019-05-01T03:24:23.675Z,62.01
2019-05-01T03:25:32.158Z,61.89
2019-05-01T03:26:40.998Z,61.97
2019-05-01T03:27:49.708Z,61.85
2019-05-01T03:28:57.648Z,61.68
2019-05-01T03:30:07.835Z,61.87
2019-05-01T03:31:16.221Z,61.85
2019-05-01T03:32:24.302Z,61.87
2019-05-01T03:33:32.538Z,62.03
2019-05-01T03:34:40.719Z,61.99
2019-05-01T03:35:49.290Z,61.98
2019-05-01T03:36:58.011Z,62.09
2019-05-01T03:38:06.434Z,62.09
2019-05-01T03:39:14.835Z,62.08
2019-05-01T03:40:23.343Z,61.99
2019-05-01T03:41:31.658Z,61.94
2019-05-01T03:42:39.769Z,62.07
2019-05-01T03:43:48.333Z,62.14
2019-05-01T03:44:56.377Z,62.08
2019-05-01T03:46:04.887Z,62.18
2019-05-01T03:47:13.065Z,62.21
2019-05-01T03:48:21.444Z,62.14
2019-05-01T03:49:29.391Z,62.26
2019-05-01T03:50:38.349Z,62.25
2019-05-01T03:51:46.575Z,62.38
2019-05-01T03:52:54.690Z,62.42
2019-05-01T03:54:03.896Z,62.30
2019-05-01T03:55:11.931Z,61.94
2019-05-01T03:56:20.413Z,61.63
2019-05-01T03:57:28.546Z,61.78
2019-05-01T03:58:36.525Z,61.99
2019-05-01T03:59:45.205Z,62.19
2019-05-01T04:01:13.284Z,62.13
2019-05-01T04:02:41.127Z,61.99
2019-05-01T04:03:53.387Z,62.03
2019-05-01T04:05:01.910Z,62.27
2019-05-01T04:06:10.042Z,62.05
2019-05-01T04:07:18.683Z,61.77
2019-05-01T04:08:26.995Z,61.95
2019-05-01T04:09:36.663Z,62.07
2019-05-01T04:10:45.108Z,61.92
2019-05-01T04:11:53.077Z,62.05
2019-05-01T04:13:01.185Z,62.18
2019-05-01T04:14:09.996Z,62.11
2019-05-01T04:15:18.015Z,61.93
2019-05-01T04:16:26.245Z,61.69
2019-05-01T04:17:39.062Z,61.75
2019-05-01T04:18:47.807Z,61.79
2019-05-01T04:19:56.098Z,62.05
2019-05-01T04:21:04.672Z,62.20
2019-05-01T04:22:13.933Z,62.56
2019-05-01T04:23:22.820Z,62.30
2019-05-01T04:24:30.906Z,62.23
2019-05-01T04:25:39.453Z,62.44
2019-05-01T04:26:47.571Z,62.54
2019-05-01T04:27:58.807Z,62.53
2019-05-01T04:29:13.358Z,62.57
2019-05-01T04:30:33.289Z,62.54
2019-05-01T04:31:45.728Z,62.65
2019-05-01T04:32:55.785Z,62.89
2019-05-01T04:34:05.745Z,62.77
2019-05-01T04:35:15.872Z,63.02
2019-05-01T04:36:32.333Z,62.78
2019-05-01T04:37:40.397Z,62.90
2019-05-01T04:38:48.767Z,63.00
2019-05-01T04:39:57.175Z,63.06
2019-05-01T04:41:05.265Z,63.06
2019-05-01T04:42:13.669Z,63.06
2019-05-01T04:43:22.143Z,62.91
2019-05-01T04:44:30.350Z,62.97
2019-05-01T04:45:38.430Z,62.84
2019-05-01T04:46:46.878Z,62.76
2019-05-01T04:47:55.895Z,62.55
2019-05-01T04:49:04.696Z,62.33
2019-05-01T04:50:12.696Z,62.43
2019-05-01T04:51:20.719Z,62.46
2019-05-01T04:52:29.027Z,62.64
2019-05-01T04:53:36.931Z,62.69
2019-05-01T04:54:44.955Z,62.68
2019-05-01T04:55:53.589Z,62.64
2019-05-01T04:57:01.962Z,62.74
2019-05-01T04:58:10.440Z,62.84
2019-05-01T04:59:18.257Z,62.96
2019-05-01T05:00:26.505Z,62.95
2019-05-01T05:01:52.838Z,62.75
2019-05-01T05:03:12.383Z,62.90
2019-05-01T05:04:21.030Z,63.21
2019-05-01T05:05:29.265Z,63.46
2019-05-01T05:06:37.395Z,63.39
2019-05-01T05:07:46.346Z,63.23
2019-05-01T05:08:54.633Z,63.16
2019-05-01T05:10:02.989Z,63.18
2019-05-01T05:11:13.149Z,62.98
2019-05-01T05:12:40.783Z,63.00
2019-05-01T05:13:59.801Z,63.19
2019-05-01T05:15:26.738Z,63.27
2019-05-01T05:16:48.623Z,63.44
2019-05-01T05:17:57.165Z,63.49
2019-05-01T05:19:05.232Z,63.40
2019-05-01T05:20:13.527Z,63.18
2019-05-01T05:21:22.275Z,63.06
2019-05-01T05:22:31.453Z,63.02
2019-05-01T05:23:39.799Z,63.04
2019-05-01T05:24:48.558Z,63.08
2019-05-01T05:25:56.818Z,63.01
2019-05-01T05:27:05.289Z,63.09
2019-05-01T05:28:14.925Z,63.27
2019-05-01T05:29:24.962Z,63.21
2019-05-01T05:30:35.393Z,63.23
2019-05-01T05:31:45.660Z,63.16
2019-05-01T05:32:56.608Z,63.32
2019-05-01T05:34:07.535Z,63.31
2019-05-01T05:35:18.259Z,63.28
2019-05-01T05:36:29.012Z,63.35
2019-05-01T05:37:44.395Z,63.49
2019-05-01T05:38:55.661Z,63.37
2019-05-01T05:40:05.400Z,63.40
2019-05-01T05:41:15.152Z,63.48
2019-05-01T05:42:23.445Z,63.34
2019-05-01T05:43:31.990Z,63.17
2019-05-01T05:44:40.581Z,63.40
2019-05-01T05:45:48.653Z,63.54
2019-05-01T05:46:57.157Z,63.49
2019-05-01T05:48:05.360Z,63.40
2019-05-01T05:49:13.949Z,63.66
2019-05-01T05:50:24.315Z,63.52
2019-05-01T05:51:35.650Z,63.82
2019-05-01T05:52:49.571Z,63.69
2019-05-01T05:54:01.049Z,63.65
2019-05-01T05:55:17.862Z,63.66
2019-05-01T05:56:30.601Z,63.71
2019-05-01T05:57:55.804Z,63.72
2019-05-01T05:59:12.384Z,63.78
2019-05-01T06:00:29.653Z,63.85
2019-05-01T06:01:57.843Z,63.62
2019-05-01T06:03:08.725Z,63.73
2019-05-01T06:04:35.112Z,63.64
2019-05-01T06:06:04.607Z,63.66
2019-05-01T06:07:34.513Z,63.65
2019-05-01T06:08:47.032Z,63.64
2019-05-01T06:10:03.511Z,63.68
2019-05-01T06:11:33.824Z,63.67
2019-05-01T06:12:53.875Z,63.81
2019-05-01T06:14:20.683Z,63.97
2019-05-01T06:15:36.648Z,63.88
2019-05-01T06:16:57.702Z,64.04
2019-05-01T06:18:25.764Z,64.05
2019-05-01T06:19:38.358Z,64.11
2019-05-01T06:20:46.484Z,64.12
2019-05-01T06:22:13.381Z,64.01
2019-05-01T06:23:26.475Z,63.96
2019-05-01T06:24:40.498Z,63.92
2019-05-01T06:25:54.163Z,63.95
2019-05-01T06:27:03.963Z,64.06
2019-05-01T06:28:13.217Z,63.97
2019-05-01T06:29:21.613Z,64.08
2019-05-01T06:30:30.029Z,64.19
2019-05-01T06:31:38.311Z,64.10
2019-05-01T06:32:47.383Z,64.04
2019-05-01T06:33:55.938Z,64.01
2019-05-01T06:35:04.648Z,64.26
2019-05-01T06:36:13.199Z,63.92
2019-05-01T06:37:25.403Z,63.68
2019-05-01T06:38:35.730Z,63.68
2019-05-01T06:39:42.887Z,63.59
2019-05-01T06:40:57.644Z,63.49
2019-05-01T06:42:04.412Z,63.49
2019-05-01T06:43:20.134Z,63.47
2019-05-01T06:44:38.608Z,63.58
2019-05-01T06:45:46.959Z,63.68
2019-05-01T06:47:03.385Z,63.78
2019-05-01T06:48:14.297Z,63.80
2019-05-01T06:49:29.465Z,63.77
2019-05-01T06:50:41.597Z,63.82
2019-05-01T06:51:53.663Z,63.98
2019-05-01T06:53:04.634Z,64.07
2019-05-01T06:54:16.360Z,63.70
2019-05-01T06:55:27.171Z,63.78
2019-05-01T06:56:35.954Z,63.90
2019-05-01T06:57:45.621Z,64.04
2019-05-01T06:58:55.266Z,64.22
2019-05-01T07:00:08.051Z,63.42
2019-05-01T07:01:19.237Z,62.58
2019-05-01T07:02:29.928Z,62.00
2019-05-01T07:03:40.819Z,61.90
2019-05-01T07:04:50.396Z,62.19
2019-05-01T07:05:58.528Z,62.05
2019-05-01T07:07:09.910Z,62.46
2019-05-01T07:08:24.493Z,62.16
2019-05-01T07:09:28.000Z,62.69
2019-05-01T07:10:44.034Z,62.65
2019-05-01T07:11:52.756Z,61.96
2019-05-01T07:13:05.113Z,61.66
2019-05-01T07:14:16.125Z,61.60
2019-05-01T07:15:26.655Z,61.37
2019-05-01T07:16:33.151Z,61.25
2019-05-01T07:17:43.829Z,61.90
2019-05-01T07:18:58.448Z,61.62
2019-05-01T07:20:12.012Z,61.79
2019-05-01T07:21:22.824Z,61.73
2019-05-01T07:22:31.235Z,62.06
2019-05-01T07:23:39.402Z,62.19
2019-05-01T07:24:49.110Z,61.97
2019-05-01T07:25:57.384Z,62.04
2019-05-01T07:27:05.348Z,61.87
2019-05-01T07:28:13.862Z,61.25
2019-05-01T07:29:26.557Z,61.25
2019-05-01T07:30:43.639Z,61.27
2019-05-01T07:31:51.479Z,61.03
2019-05-01T07:33:00.241Z,59.87
2019-05-01T07:34:16.244Z,58.93
2019-05-01T07:35:19.093Z,58.82
2019-05-01T07:36:27.440Z,58.61
2019-05-01T07:37:35.751Z,59.14
2019-05-01T07:38:46.123Z,58.88
2019-05-01T07:39:54.214Z,58.25
2019-05-01T07:41:03.763Z,58.72
2019-05-01T07:42:27.199Z,58.49
2019-05-01T07:43:54.845Z,59.68
2019-05-01T07:45:26.271Z,58.82
2019-05-01T07:46:54.302Z,59.09
2019-05-01T07:48:05.647Z,59.06
2019-05-01T07:49:13.137Z,59.36
2019-05-01T07:50:23.874Z,59.56
2019-05-01T07:51:31.086Z,59.10
2019-05-01T07:52:40.514Z,59.92
2019-05-01T07:53:49.241Z,59.83
2019-05-01T07:54:58.358Z,59.75
2019-05-01T07:56:08.052Z,59.89
2019-05-01T07:57:18.257Z,58.43
2019-05-01T07:58:26.471Z,58.14
2019-05-01T07:59:34.371Z,58.70
2019-05-01T08:01:13.078Z,58.95
2019-05-01T08:02:20.206Z,59.70
2019-05-01T08:03:28.585Z,58.48
2019-05-01T08:04:36.905Z,58.93
2019-05-01T08:05:45.499Z,58.41
2019-05-01T08:06:57.107Z,58.56
2019-05-01T08:08:07.914Z,56.62
2019-05-01T08:09:15.120Z,57.42
2019-05-01T08:10:25.850Z,56.81
2019-05-01T08:11:33.190Z,57.48
2019-05-01T08:12:41.073Z,58.45
2019-05-01T08:13:48.783Z,57.22
2019-05-01T08:14:56.662Z,57.59
2019-05-01T08:16:07.103Z,57.55
2019-05-01T08:17:18.146Z,54.55
2019-05-01T08:18:36.304Z,55.08
2019-05-01T08:19:58.145Z,56.83
2019-05-01T08:21:26.214Z,56.69
2019-05-01T08:22:37.282Z,56.70
2019-05-01T08:23:47.148Z,56.94
2019-05-01T08:24:58.644Z,58.12
2019-05-01T08:26:08.656Z,57.63
2019-05-01T08:27:20.311Z,57.22
2019-05-01T08:28:42.639Z,55.61
2019-05-01T08:29:52.652Z,53.23
2019-05-01T08:31:02.612Z,54.70
2019-05-01T08:32:17.531Z,55.66
2019-05-01T08:33:36.095Z,54.64
2019-05-01T08:34:49.099Z,54.94
2019-05-01T08:35:54.283Z,54.60
2019-05-01T08:37:02.103Z,51.82
2019-05-01T08:38:10.256Z,53.80
2019-05-01T08:39:18.579Z,54.39
2019-05-01T08:40:26.541Z,54.46
2019-05-01T08:41:37.506Z,53.47
2019-05-01T08:42:44.541Z,54.57
2019-05-01T08:43:54.178Z,54.73
2019-05-01T08:45:05.133Z,54.61
2019-05-01T08:46:29.358Z,54.10
2019-05-01T08:47:44.563Z,52.83
2019-05-01T08:48:54.030Z,52.02
2019-05-01T08:50:06.530Z,54.08
2019-05-01T08:51:14.979Z,53.09
2019-05-01T08:52:22.826Z,54.51
2019-05-01T08:53:30.937Z,50.96
2019-05-01T08:54:38.766Z,53.42
2019-05-01T08:55:47.126Z,53.85
2019-05-01T08:56:58.194Z,53.07
2019-05-01T08:58:08.853Z,53.68
2019-05-01T08:59:15.259Z,54.21
2019-05-01T09:00:23.253Z,53.73
2019-05-01T09:01:31.228Z,52.44
2019-05-01T09:02:41.767Z,53.64
2019-05-01T09:03:49.634Z,53.55
2019-05-01T09:05:02.621Z,52.86
2019-05-01T09:06:08.344Z,53.30
2019-05-01T09:07:19.195Z,53.14
2019-05-01T09:08:31.919Z,53.50
2019-05-01T09:09:39.847Z,52.29
2019-05-01T09:10:49.462Z,52.68
2019-05-01T09:11:56.237Z,52.05
2019-05-01T09:13:04.703Z,52.34
2019-05-01T09:14:12.637Z,53.15
2019-05-01T09:15:20.855Z,53.27
2019-05-01T09:16:30.222Z,49.95
2019-05-01T09:17:38.187Z,49.69
2019-05-01T09:18:46.106Z,51.32
2019-05-01T09:19:53.975Z,50.60
2019-05-01T09:21:02.258Z,52.70
2019-05-01T09:22:10.406Z,50.23
2019-05-01T09:23:18.825Z,49.60
2019-05-01T09:24:27.840Z,52.49
2019-05-01T09:25:38.522Z,52.17
2019-05-01T09:26:50.258Z,49.89
2019-05-01T09:28:04.097Z,49.39
2019-05-01T09:29:19.025Z,52.28
2019-05-01T09:30:28.855Z,51.98
2019-05-01T09:31:37.023Z,51.23
2019-05-01T09:32:51.671Z,46.03
2019-05-01T09:33:55.174Z,47.59
2019-05-01T09:35:15.050Z,44.85
2019-05-01T09:36:12.792Z,48.13
2019-05-01T09:37:20.901Z,49.44
2019-05-01T09:38:28.975Z,48.52
2019-05-01T09:39:37.499Z,49.46
2019-05-01T09:40:45.510Z,51.06
2019-05-01T09:41:53.696Z,50.61
2019-05-01T09:43:01.748Z,48.10
2019-05-01T09:44:10.782Z,50.02
2019-05-01T09:45:20.422Z,50.75
2019-05-01T09:46:28.586Z,50.88
2019-05-01T09:47:36.508Z,48.35
2019-05-01T09:48:45.194Z,49.06
2019-05-01T09:49:55.614Z,49.19
2019-05-01T09:51:07.355Z,49.38
2019-05-01T09:52:18.922Z,50.33
2019-05-01T09:53:29.742Z,49.96
2019-05-01T09:54:46.705Z,48.23
2019-05-01T09:56:03.275Z,48.15
2019-05-01T09:57:11.533Z,49.82
2019-05-01T09:58:20.276Z,49.21
2019-05-01T09:59:28.220Z,52.02
2019-05-01T10:00:36.762Z,48.27
2019-05-01T10:01:44.867Z,44.84
2019-05-01T10:02:54.698Z,52.02
2019-05-01T10:04:05.536Z,50.23
2019-05-01T10:05:13.060Z,46.66
2019-05-01T10:06:21.447Z,50.79
2019-05-01T10:07:30.815Z,42.68
2019-05-01T10:08:40.062Z,47.50
2019-05-01T10:09:52.158Z,44.31
2019-05-01T10:10:59.971Z,48.95
2019-05-01T10:12:11.733Z,48.81
2019-05-01T10:13:22.246Z,47.67
2019-05-01T10:14:31.735Z,44.97
2019-05-01T10:15:38.044Z,46.69
2019-05-01T10:16:46.297Z,47.54
2019-05-01T10:17:54.487Z,44.97
2019-05-01T10:19:02.594Z,46.44
2019-05-01T10:20:10.644Z,42.05
2019-05-01T10:21:22.301Z,44.12
2019-05-01T10:22:28.532Z,40.98
2019-05-01T10:23:36.688Z,44.26
2019-05-01T10:24:44.612Z,46.60
2019-05-01T10:25:54.032Z,46.75
2019-05-01T10:27:02.875Z,42.94
2019-05-01T10:28:17.448Z,45.59
2019-05-01T10:29:40.037Z,47.95
2019-05-01T10:30:47.648Z,47.54
2019-05-01T10:32:12.666Z,48.94
2019-05-01T10:33:29.053Z,47.20
2019-05-01T10:34:48.613Z,45.62
2019-05-01T10:36:02.222Z,51.98
2019-05-01T10:37:10.096Z,49.67
2019-05-01T10:38:18.277Z,54.43
2019-05-01T10:39:26.798Z,45.31
2019-05-01T10:40:34.878Z,48.13
2019-05-01T10:41:46.337Z,51.65
2019-05-01T10:42:52.611Z,44.06
2019-05-01T10:44:00.675Z,42.98
2019-05-01T10:45:09.005Z,52.27
2019-05-01T10:46:16.988Z,55.27
2019-05-01T10:47:24.781Z,56.17
2019-05-01T10:48:32.617Z,54.27
2019-05-01T10:49:40.396Z,47.83
2019-05-01T10:50:48.428Z,47.60
2019-05-01T10:51:56.581Z,48.61
2019-05-01T10:53:04.571Z,48.31
2019-05-01T10:54:12.356Z,49.29
2019-05-01T10:55:20.458Z,50.60
2019-05-01T10:56:28.939Z,52.32
2019-05-01T10:57:40.139Z,50.69
2019-05-01T10:58:46.700Z,44.85
2019-05-01T10:59:54.808Z,47.14
2019-05-01T11:01:10.310Z,45.67
2019-05-01T11:02:20.009Z,44.58
2019-05-01T11:03:28.189Z,42.19
2019-05-01T11:04:36.307Z,44.74
2019-05-01T11:05:55.197Z,39.32
2019-05-01T11:06:54.153Z,48.12
2019-05-01T11:08:02.307Z,44.19
2019-05-01T11:09:10.827Z,43.76
2019-05-01T11:10:20.487Z,38.60
2019-05-01T11:11:29.339Z,41.52
2019-05-01T11:12:37.583Z,41.86
2019-05-01T11:13:45.379Z,36.85
2019-05-01T11:14:53.516Z,37.96
2019-05-01T11:16:01.606Z,38.21
2019-05-01T11:17:09.994Z,37.96
2019-05-01T11:18:18.134Z,37.93
2019-05-01T11:19:26.277Z,37.87
2019-05-01T11:20:34.609Z,38.81
2019-05-01T11:21:42.661Z,39.21
2019-05-01T11:22:50.855Z,39.80
2019-05-01T11:24:00.183Z,38.75
2019-05-01T11:25:10.119Z,37.25
2019-05-01T11:26:18.116Z,38.23
2019-05-01T11:27:26.224Z,39.16
2019-05-01T11:28:34.458Z,36.86
2019-05-01T11:29:42.676Z,30.08
2019-05-01T11:30:51.267Z,36.99
2019-05-01T11:32:17.235Z,38.03
2019-05-01T11:33:36.031Z,37.85
2019-05-01T11:34:44.156Z,38.13
2019-05-01T11:36:09.574Z,34.75
2019-05-01T11:37:18.139Z,38.21
2019-05-01T11:38:43.266Z,34.28
2019-05-01T11:39:58.771Z,40.75
2019-05-01T11:41:08.871Z,44.50
2019-05-01T11:42:18.170Z,47.28
2019-05-01T11:43:26.185Z,42.97
2019-05-01T11:44:34.215Z,41.40
2019-05-01T11:45:42.767Z,42.16
2019-05-01T11:46:50.766Z,42.61
2019-05-01T11:47:59.545Z,37.60
2019-05-01T11:49:07.702Z,41.37
2019-05-01T11:50:16.107Z,38.89
2019-05-01T11:51:24.273Z,36.63
2019-05-01T11:52:32.390Z,40.65
2019-05-01T11:53:40.435Z,39.27
2019-05-01T11:54:48.453Z,31.44
2019-05-01T11:55:57.604Z,40.26
2019-05-01T11:57:05.984Z,40.12
2019-05-01T11:58:13.979Z,42.88
2019-05-01T11:59:21.980Z,41.28
2019-05-01T12:00:30.000Z,41.39
2019-05-01T12:01:38.867Z,38.74
2019-05-01T12:02:46.964Z,34.60
2019-05-01T12:03:55.229Z,37.04
2019-05-01T12:05:03.402Z,39.45
2019-05-01T12:06:22.295Z,38.96
2019-05-01T12:07:21.413Z,38.95
2019-05-01T12:08:31.336Z,38.57
2019-05-01T12:09:39.208Z,40.65
2019-05-01T12:10:47.297Z,38.35
2019-05-01T12:11:57.240Z,37.29
2019-05-01T12:13:05.397Z,39.18
2019-05-01T12:14:13.698Z,38.30
2019-05-01T12:15:21.909Z,33.84
2019-05-01T12:16:47.705Z,36.29
2019-05-01T12:17:56.276Z,32.74
2019-05-01T12:19:04.341Z,30.61
2019-05-01T12:20:13.840Z,27.43
2019-05-01T12:21:21.931Z,31.57
2019-05-01T12:22:29.946Z,33.82
2019-05-01T12:23:38.038Z,28.77
2019-05-01T12:24:46.106Z,34.37
2019-05-01T12:25:54.302Z,32.78
2019-05-01T12:27:02.436Z,30.96
2019-05-01T12:28:10.363Z,31.18
2019-05-01T12:29:18.674Z,33.82
2019-05-01T12:30:26.769Z,36.51
2019-05-01T12:31:34.925Z,37.56
2019-05-01T12:32:43.312Z,35.56
2019-05-01T12:33:51.212Z,31.24
2019-05-01T12:34:59.231Z,34.83
2019-05-01T12:36:08.560Z,34.41
2019-05-01T12:37:18.343Z,34.36
2019-05-01T12:38:26.778Z,36.64
2019-05-01T12:39:34.758Z,35.13
2019-05-01T12:40:44.395Z,36.02
2019-05-01T12:42:02.324Z,34.57
2019-05-01T12:43:12.284Z,35.06
2019-05-01T12:44:19.768Z,35.36
2019-05-01T12:45:27.994Z,34.21
2019-05-01T12:46:46.562Z,34.42
2019-05-01T12:47:56.632Z,33.67
2019-05-01T12:49:04.730Z,32.26
2019-05-01T12:50:14.303Z,31.66
2019-05-01T12:51:22.254Z,30.77
2019-05-01T12:52:30.053Z,32.28
2019-05-01T12:53:40.085Z,23.94
2019-05-01T12:54:51.926Z,25.13
2019-05-01T12:56:13.755Z,23.91
2019-05-01T12:57:21.785Z,27.65
2019-05-01T12:58:29.883Z,29.00
2019-05-01T12:59:38.448Z,29.67
2019-05-01T13:00:51.651Z,30.97
2019-05-01T13:01:59.807Z,27.07
2019-05-01T13:03:07.897Z,31.29
2019-05-01T13:04:16.113Z,27.53
2019-05-01T13:05:24.010Z,28.59
2019-05-01T13:06:31.896Z,30.21
2019-05-01T13:07:40.613Z,28.60
2019-05-01T13:08:48.923Z,30.50
2019-05-01T13:09:57.610Z,25.13
2019-05-01T13:11:06.101Z,26.46
2019-05-01T13:12:14.369Z,26.98
2019-05-01T13:13:22.328Z,27.56
2019-05-01T13:14:30.536Z,24.05
2019-05-01T13:15:38.470Z,20.20
2019-05-01T13:16:46.596Z,22.53
2019-05-01T13:17:54.783Z,19.74
2019-05-01T13:19:02.914Z,24.34
2019-05-01T13:20:11.131Z,22.98
2019-05-01T13:21:19.324Z,26.35
2019-05-01T13:22:27.389Z,26.59
2019-05-01T13:23:35.518Z,27.38
2019-05-01T13:24:52.695Z,26.02
2019-05-01T13:26:02.574Z,28.13
2019-05-01T13:27:27.432Z,28.06
2019-05-01T13:28:47.533Z,26.87
2019-05-01T13:29:57.184Z,27.06
2019-05-01T13:31:09.968Z,28.08
2019-05-01T13:32:29.799Z,27.35
2019-05-01T13:33:37.812Z,26.86
2019-05-01T13:34:46.297Z,24.22
2019-05-01T13:35:54.421Z,25.04
2019-05-01T13:37:03.554Z,25.67
2019-05-01T13:38:11.837Z,24.53
2019-05-01T13:39:20.006Z,25.32
2019-05-01T13:40:28.013Z,26.78
2019-05-01T13:41:36.199Z,25.89
2019-05-01T13:42:44.960Z,22.91
2019-05-01T13:43:58.143Z,22.73
2019-05-01T13:45:12.184Z,21.44
2019-05-01T13:46:24.383Z,21.39
2019-05-01T13:47:35.048Z,22.16
2019-05-01T13:48:44.668Z,20.10
2019-05-01T13:49:59.648Z,22.63
2019-05-01T13:51:13.422Z,22.24
2019-05-01T13:52:26.450Z,22.00
2019-05-01T13:53:38.017Z,23.25
2019-05-01T13:54:49.209Z,21.87
2019-05-01T13:56:08.163Z,21.78
2019-05-01T13:57:22.193Z,21.58
2019-05-01T13:58:37.687Z,21.83
2019-05-01T13:59:48.263Z,23.23
2019-05-01T14:01:01.784Z,25.06
2019-05-01T14:02:14.237Z,25.17
2019-05-01T14:03:22.499Z,23.94
2019-05-01T14:04:30.767Z,24.01
2019-05-01T14:05:38.801Z,21.81
2019-05-01T14:06:46.867Z,22.94
2019-05-01T14:07:54.942Z,21.43
2019-05-01T14:09:04.680Z,22.06
2019-05-01T14:10:12.871Z,23.39
2019-05-01T14:11:20.996Z,23.08
2019-05-01T14:12:28.981Z,23.61
2019-05-01T14:13:37.195Z,25.96
2019-05-01T14:14:45.243Z,25.32
2019-05-01T14:15:53.272Z,26.22
2019-05-01T14:17:01.355Z,25.44
2019-05-01T14:18:09.354Z,26.92
2019-05-01T14:19:17.077Z,27.16
2019-05-01T14:20:43.400Z,25.14
2019-05-01T14:22:07.960Z,25.16
2019-05-01T14:23:33.774Z,21.95
2019-05-01T14:24:43.589Z,22.35
2019-05-01T14:26:03.472Z,21.63
2019-05-01T14:27:11.575Z,22.53
2019-05-01T14:28:19.402Z,22.46
2019-05-01T14:29:27.656Z,20.43
2019-05-01T14:30:35.509Z,22.14
2019-05-01T14:31:43.753Z,22.17
2019-05-01T14:32:51.938Z,21.94
2019-05-01T14:34:00.021Z,21.71
2019-05-01T14:35:09.860Z,22.76
2019-05-01T14:36:17.853Z,21.61
2019-05-01T14:37:29.854Z,22.24
2019-05-01T14:38:36.319Z,23.88
2019-05-01T14:39:44.375Z,23.92
2019-05-01T14:40:52.427Z,24.47
2019-05-01T14:42:00.539Z,25.93
2019-05-01T14:43:08.869Z,24.94
2019-05-01T14:44:17.200Z,25.34
2019-05-01T14:45:25.325Z,23.35
2019-05-01T14:46:33.408Z,24.99
2019-05-01T14:47:41.574Z,23.34
2019-05-01T14:48:49.895Z,24.29
2019-05-01T14:49:57.986Z,23.60
2019-05-01T14:51:06.027Z,23.00
2019-05-01T14:52:14.042Z,23.81
2019-05-01T14:53:22.126Z,22.54
2019-05-01T14:54:30.294Z,22.59
2019-05-01T14:55:38.352Z,23.15
2019-05-01T14:56:46.422Z,22.31
2019-05-01T14:57:54.376Z,21.65
2019-05-01T14:59:02.415Z,22.12
2019-05-01T15:00:11.149Z,21.36
2019-05-01T15:01:19.186Z,20.54
2019-05-01T15:02:27.526Z,22.16
2019-05-01T15:03:35.472Z,21.69
2019-05-01T15:04:43.675Z,22.35
2019-05-01T15:05:51.535Z,22.31
2019-05-01T15:06:59.505Z,22.75
2019-05-01T15:08:07.656Z,22.03